Time,TemperatureF,DewpointF,PressureIn,WindDirection,WindDirectionDegrees,WindSpeedMPH,WindSpeedGustMPH,Humidity,HourlyPrecipIn,Conditions,Clouds,dailyrainin,SolarRadiationWatts/m^2,SoftwareType,DateUTC
2013-04-10 00:04:00,56.0,50.6,30.15,SW,221,0.0,0.0,82,0.00,CLR,CLR,0.00,0.0,WeatherDisplay:10.37,2013-04-10 04:04:00,
2013-04-10 00:09:00,56.0,50.6,30.15,SW,221,0.0,0.0,82,0.00,CLR,CLR,0.00,0.0,WeatherDisplay:10.37,2013-04-10 04:09:00,
2013-04-10 00:14:00,56.1,50.4,30.15,SW,221,0.0,0.0,81,0.00,CLR,CLR,0.00,0.0,WeatherDisplay:10.37,2013-04-10 04:14:00,
2013-04-10 00:19:00,56.0,50.3,30.15,SW,221,0.0,0.0,81,0.00,CLR,CLR,0.00,0.0,WeatherDisplay:10.37,2013-04-10 04:19:00,
2013-04-10 00:29:00,55.5,49.8,30.15,SW,221,0.0,0.0,81,0.00,CLR,CLR,0.00,0.0,WeatherDisplay:10.37,2013-04-10 04:29:00,
2013-04-10 00:34:00,55.3,50.2,30.15,SW,221,0.0,0.0,83,0.00,CLR,CLR,0.00,0.0,WeatherDisplay:10.37,2013-04-10 04:34:00,
2013-04-10 00:39:00,55.0,50.0,30.15,SW,221,0.0,0.0,83,0.00,CLR,CLR,0.00,0.0,WeatherDisplay:10.37,2013-04-10 04:39:00,
2013-04-10 00:44:00,54.9,49.8,30.15,SW,221,0.0,1.0,83,0.00,CLR,CLR,0.00,0.0,WeatherDisplay:10.37,2013-04-10 04:44:00,
2013-04-10 00:49:00,54.9,50.2,30.15,SW,221,0.0,1.0,84,0.00,CLR,CLR,0.00,0.0,WeatherDisplay:10.37,2013-04-10 04:49:00,
2013-04-10 00:54:00,55.5,50.7,30.15,SW,231,1.0,4.0,84,0.00,CLR,CLR,0.00,0.0,WeatherDisplay:10.37,2013-04-10 04:54:00,
2013-04-10 00:59:00,56.6,50.8,30.15,WSW,243,1.0,3.0,81,0.00,CLR,CLR,0.00,0.0,WeatherDisplay:10.37,2013-04-10 04:59:00,
2013-04-10 01:04:00,57.7,51.2,30.15,WSW,246,1.0,4.0,79,0.00,CLR,CLR,0.00,0.0,WeatherDisplay:10.37,2013-04-10 05:04:00,
2013-04-10 01:14:00,58.7,51.5,30.15,WSW,245,0.0,2.0,77,0.00,CLR,CLR,0.00,0.0,WeatherDisplay:10.37,2013-04-10 05:14:00,
2013-04-10 01:19:00,58.5,51.4,30.15,WSW,247,1.0,3.0,77,0.00,CLR,CLR,0.00,0.0,WeatherDisplay:10.37,2013-04-10 05:19:00,
2013-04-10 01:29:00,58.6,51.4,30.14,West,260,1.0,5.0,77,0.00,CLR,CLR,0.00,0.0,WeatherDisplay:10.37,2013-04-10 05:29:00,
2013-04-10 01:39:00,59.3,51.8,30.14,WSW,250,0.0,3.0,76,0.00,CLR,CLR,0.00,0.0,WeatherDisplay:10.37,2013-04-10 05:39:00,
2013-04-10 01:49:00,60.1,51.8,30.14,WSW,248,0.0,3.0,74,0.00,CLR,CLR,0.00,0.0,WeatherDisplay:10.37,2013-04-10 05:49:00,
2013-04-10 01:54:00,60.2,51.9,30.14,WSW,251,0.0,7.0,74,0.00,CLR,CLR,0.00,0.0,WeatherDisplay:10.37,2013-04-10 05:54:00,
2013-04-10 01:59:00,60.3,52.0,30.14,WSW,247,2.0,5.0,74,0.00,CLR,CLR,0.00,0.0,WeatherDisplay:10.37,2013-04-10 05:59:00,
2013-04-10 02:09:00,60.5,51.8,30.13,WSW,237,0.0,3.0,73,0.00,CLR,CLR,0.00,0.0,WeatherDisplay:10.37,2013-04-10 06:09:00,
2013-04-10 02:19:00,59.5,51.2,30.13,West,264,0.0,1.0,74,0.00,CLR,CLR,0.00,0.0,WeatherDisplay:10.37,2013-04-10 06:19:00,
2013-04-10 02:29:00,58.3,51.1,30.13,West,264,0.0,1.0,77,0.00,CLR,CLR,0.00,0.0,WeatherDisplay:10.37,2013-04-10 06:29:00,
2013-04-10 02:34:00,58.1,51.2,30.13,West,264,0.0,0.0,78,0.00,CLR,CLR,0.00,0.0,WeatherDisplay:10.37,2013-04-10 06:34:00,
2013-04-10 02:44:00,57.4,50.6,30.12,West,264,0.0,3.0,78,0.00,CLR,CLR,0.00,0.0,WeatherDisplay:10.37,2013-04-10 06:44:00,
2013-04-10 02:49:00,56.8,50.7,30.12,West,264,0.0,0.0,80,0.00,CLR,CLR,0.00,0.0,WeatherDisplay:10.37,2013-04-10 06:49:00,
2013-04-10 02:54:00,56.4,50.3,30.12,West,264,0.0,1.0,80,0.00,CLR,CLR,0.00,0.0,WeatherDisplay:10.37,2013-04-10 06:54:00,
2013-04-10 03:04:00,55.9,50.5,30.11,West,264,0.0,1.0,82,0.00,CLR,CLR,0.00,0.0,WeatherDisplay:10.37,2013-04-10 07:04:00,
2013-04-10 03:09:00,55.7,50.0,30.12,West,264,0.0,0.0,81,0.00,CLR,CLR,0.00,0.0,WeatherDisplay:10.37,2013-04-10 07:09:00,
2013-04-10 03:14:00,55.5,49.7,30.11,West,264,0.0,0.0,81,0.00,CLR,CLR,0.00,0.0,WeatherDisplay:10.37,2013-04-10 07:14:00,
2013-04-10 03:24:00,54.7,50.0,30.11,West,264,0.0,0.0,84,0.00,CLR,CLR,0.00,0.0,WeatherDisplay:10.37,2013-04-10 07:24:00,
2013-04-10 03:29:00,54.4,49.7,30.11,West,264,0.0,0.0,84,0.00,CLR,CLR,0.00,0.0,WeatherDisplay:10.37,2013-04-10 07:29:00,
2013-04-10 03:34:00,54.2,49.5,30.11,West,264,0.0,0.0,84,0.00,CLR,CLR,0.00,0.0,WeatherDisplay:10.37,2013-04-10 07:34:00,
2013-04-10 03:39:00,53.9,49.2,30.10,West,264,0.0,0.0,84,0.00,CLR,CLR,0.00,0.0,WeatherDisplay:10.37,2013-04-10 07:39:00,
2013-04-10 03:49:00,53.5,49.4,30.10,West,264,0.0,0.0,86,0.00,CLR,CLR,0.00,0.0,WeatherDisplay:10.37,2013-04-10 07:49:00,
2013-04-10 03:54:00,53.3,49.2,30.11,West,264,0.0,0.0,86,0.00,CLR,CLR,0.00,0.0,WeatherDisplay:10.37,2013-04-10 07:54:00,
2013-04-10 04:04:00,53.0,48.9,30.11,West,264,0.0,0.0,86,0.00,CLR,CLR,0.00,0.0,WeatherDisplay:10.37,2013-04-10 08:04:00,
2013-04-10 04:09:00,53.0,48.9,30.11,West,264,0.0,0.0,86,0.00,CLR,CLR,0.00,0.0,WeatherDisplay:10.37,2013-04-10 08:09:00,
2013-04-10 04:19:00,52.5,48.4,30.10,West,264,0.0,0.0,86,0.00,CLR,CLR,0.00,0.0,WeatherDisplay:10.37,2013-04-10 08:19:00,
2013-04-10 04:24:00,52.3,48.5,30.10,West,264,0.0,0.0,87,0.00,CLR,CLR,0.00,0.0,WeatherDisplay:10.37,2013-04-10 08:24:00,
2013-04-10 04:29:00,52.1,48.7,30.10,West,264,0.0,0.0,88,0.00,CLR,CLR,0.00,0.0,WeatherDisplay:10.37,2013-04-10 08:29:00,
2013-04-10 04:34:00,52.0,48.6,30.10,West,264,0.0,0.0,88,0.00,CLR,CLR,0.00,0.0,WeatherDisplay:10.37,2013-04-10 08:34:00,
2013-04-10 04:39:00,51.9,48.5,30.10,West,264,0.0,0.0,88,0.00,CLR,CLR,0.00,0.0,WeatherDisplay:10.37,2013-04-10 08:39:00,
2013-04-10 04:49:00,51.9,48.8,30.10,West,264,0.0,0.0,89,0.00,CLR,CLR,0.00,0.0,WeatherDisplay:10.37,2013-04-10 08:49:00,
2013-04-10 04:54:00,51.9,48.5,30.10,West,264,0.0,0.0,88,0.00,CLR,CLR,0.00,0.0,WeatherDisplay:10.37,2013-04-10 08:54:00,
2013-04-10 04:59:00,51.9,48.4,30.10,West,264,0.0,0.0,88,0.00,CLR,CLR,0.00,0.0,WeatherDisplay:10.37,2013-04-10 08:59:00,
2013-04-10 05:04:00,52.0,48.9,30.10,West,264,0.0,0.0,89,0.00,CLR,CLR,0.00,0.0,WeatherDisplay:10.37,2013-04-10 09:04:00,
2013-04-10 05:14:00,51.8,48.7,30.10,West,264,0.0,0.0,89,0.00,CLR,CLR,0.00,0.0,WeatherDisplay:10.37,2013-04-10 09:14:00,
2013-04-10 05:19:00,51.6,48.5,30.10,West,264,0.0,0.0,89,0.00,CLR,CLR,0.00,0.0,WeatherDisplay:10.37,2013-04-10 09:19:00,
2013-04-10 05:24:00,51.7,48.8,30.10,West,264,0.0,0.0,90,0.00,CLR,CLR,0.00,0.0,WeatherDisplay:10.37,2013-04-10 09:24:00,
2013-04-10 05:34:00,51.5,48.1,30.10,West,264,0.0,0.0,88,0.00,CLR,CLR,0.00,0.0,WeatherDisplay:10.37,2013-04-10 09:34:00,
2013-04-10 05:39:00,51.4,48.3,30.10,West,264,0.0,0.0,89,0.00,CLR,CLR,0.00,0.0,WeatherDisplay:10.37,2013-04-10 09:39:00,
2013-04-10 05:44:00,51.3,48.2,30.10,West,264,0.0,0.0,89,0.00,CLR,CLR,0.00,0.0,WeatherDisplay:10.37,2013-04-10 09:44:00,
2013-04-10 05:49:00,51.2,48.4,30.10,West,264,0.0,0.0,90,0.00,CLR,CLR,0.00,0.0,WeatherDisplay:10.37,2013-04-10 09:49:00,
2013-04-10 05:54:00,51.4,48.9,30.10,West,264,0.0,0.0,91,0.00,CLR,CLR,0.00,0.0,WeatherDisplay:10.37,2013-04-10 09:54:00,
2013-04-10 06:04:00,51.4,48.6,30.09,West,264,0.0,0.0,90,0.00,CLR,CLR,0.00,0.0,WeatherDisplay:10.37,2013-04-10 10:04:00,
2013-04-10 06:09:00,51.5,48.7,30.09,West,264,0.0,0.0,90,0.00,CLR,CLR,0.00,0.0,WeatherDisplay:10.37,2013-04-10 10:09:00,
2013-04-10 06:19:00,51.4,48.6,30.09,West,264,0.0,0.0,90,0.00,CLR,CLR,0.00,0.0,WeatherDisplay:10.37,2013-04-10 10:19:00,
2013-04-10 06:24:00,51.4,48.6,30.09,West,264,0.0,0.0,90,0.00,CLR,CLR,0.00,0.0,WeatherDisplay:10.37,2013-04-10 10:24:00,
2013-04-10 06:29:00,51.4,48.5,30.10,West,264,0.0,0.0,90,0.00,CLR,CLR,0.00,0.0,WeatherDisplay:10.37,2013-04-10 10:29:00,
2013-04-10 06:39:00,50.8,48.0,30.10,West,264,0.0,0.0,90,0.00,CLR,CLR,0.00,0.0,WeatherDisplay:10.37,2013-04-10 10:39:00,
2013-04-10 06:49:00,50.4,47.9,30.10,West,264,0.0,0.0,91,0.00,CLR,CLR,0.00,0.0,WeatherDisplay:10.37,2013-04-10 10:49:00,
2013-04-10 06:54:00,50.2,47.4,30.10,West,264,0.0,0.0,90,0.00,CLR,CLR,0.00,0.0,WeatherDisplay:10.37,2013-04-10 10:54:00,
2013-04-10 07:04:00,49.7,47.2,30.10,West,264,0.0,0.0,91,0.00,OVC,OVC,0.00,0.0,WeatherDisplay:10.37,2013-04-10 11:04:00,
2013-04-10 07:09:00,49.5,46.7,30.11,West,279,0.0,0.0,90,0.00,CLR,CLR,0.00,7.0,WeatherDisplay:10.37,2013-04-10 11:09:00,
2013-04-10 07:19:00,49.2,46.7,30.11,North,360,0.0,0.0,91,0.00,BKN,BKN,0.00,14.0,WeatherDisplay:10.37,2013-04-10 11:19:00,
2013-04-10 07:24:00,49.2,46.7,30.11,North,360,0.0,0.0,91,0.00,BKN,BKN,0.00,16.0,WeatherDisplay:10.37,2013-04-10 11:24:00,
2013-04-10 07:29:00,49.1,46.6,30.11,North,360,0.0,0.0,91,0.00,OVC,OVC,0.00,19.0,WeatherDisplay:10.37,2013-04-10 11:29:00,
2013-04-10 07:34:00,49.3,47.4,30.11,North,360,0.0,0.0,93,0.00,OVC,OVC,0.00,21.0,WeatherDisplay:10.37,2013-04-10 11:34:00,
2013-04-10 07:39:00,49.5,47.6,30.11,North,360,0.0,0.0,93,0.00,OVC,OVC,0.00,28.0,WeatherDisplay:10.37,2013-04-10 11:39:00,
2013-04-10 07:49:00,49.5,47.3,30.11,North,360,0.0,0.0,92,0.00,BKN,BKN,0.00,54.0,WeatherDisplay:10.37,2013-04-10 11:49:00,
2013-04-10 07:54:00,49.7,47.8,30.11,North,360,0.0,0.0,93,0.00,FEW,FEW,0.00,95.0,WeatherDisplay:10.37,2013-04-10 11:54:00,
2013-04-10 07:59:00,50.1,48.1,30.11,North,360,0.0,0.0,93,0.00,SCT,SCT,0.00,93.0,WeatherDisplay:10.37,2013-04-10 11:59:00,
2013-04-10 08:04:00,50.4,48.2,30.12,North,360,0.0,0.0,92,0.00,FEW,FEW,0.00,120.0,WeatherDisplay:10.37,2013-04-10 12:04:00,
2013-04-10 08:09:00,50.9,48.4,30.12,North,360,0.0,0.0,91,0.00,FEW,FEW,0.00,149.0,WeatherDisplay:10.37,2013-04-10 12:09:00,
2013-04-10 08:19:00,52.4,49.8,30.12,North,360,0.0,0.0,91,0.00,CLR,CLR,0.00,186.0,WeatherDisplay:10.37,2013-04-10 12:19:00,
2013-04-10 08:29:00,54.2,51.3,30.12,North,360,0.0,0.0,90,0.00,CLR,CLR,0.00,236.0,WeatherDisplay:10.37,2013-04-10 12:29:00,
2013-04-10 08:34:00,55.7,51.9,30.12,North,360,0.0,0.0,87,0.00,CLR,CLR,0.00,257.0,WeatherDisplay:10.37,2013-04-10 12:34:00,
2013-04-10 08:39:00,57.1,52.7,30.11,North,360,0.0,0.0,85,0.00,CLR,CLR,0.00,272.0,WeatherDisplay:10.37,2013-04-10 12:39:00,
2013-04-10 08:44:00,58.7,53.5,30.11,North,360,0.0,0.0,83,0.00,CLR,CLR,0.00,288.0,WeatherDisplay:10.37,2013-04-10 12:44:00,
2013-04-10 08:49:00,59.7,52.8,30.12,North,360,0.0,1.0,78,0.00,CLR,CLR,0.00,313.0,WeatherDisplay:10.37,2013-04-10 12:49:00,
2013-04-10 08:59:00,61.6,54.0,30.11,North,360,0.0,0.0,76,0.00,CLR,CLR,0.00,350.0,WeatherDisplay:10.37,2013-04-10 12:59:00,
2013-04-10 09:04:00,62.4,54.4,30.11,North,360,0.0,0.0,75,0.00,CLR,CLR,0.00,369.0,WeatherDisplay:10.37,2013-04-10 13:04:00,
2013-04-10 09:09:00,63.5,55.4,30.12,North,360,0.0,0.0,75,0.00,CLR,CLR,0.00,390.0,WeatherDisplay:10.37,2013-04-10 13:09:00,
2013-04-10 09:19:00,64.6,54.6,30.11,WNW,294,0.0,1.0,70,0.00,CLR,CLR,0.00,418.0,WeatherDisplay:10.37,2013-04-10 13:19:00,
2013-04-10 09:24:00,65.1,54.7,30.12,WNW,283,0.0,1.0,69,0.00,CLR,CLR,0.00,438.0,WeatherDisplay:10.37,2013-04-10 13:24:00,
2013-04-10 09:29:00,65.8,54.6,30.12,West,280,0.0,1.0,67,0.00,CLR,CLR,0.00,457.0,WeatherDisplay:10.37,2013-04-10 13:29:00,
2013-04-10 09:39:00,67.2,54.6,30.11,WSW,247,1.0,3.0,64,0.00,CLR,CLR,0.00,494.0,WeatherDisplay:10.37,2013-04-10 13:39:00,
2013-04-10 09:44:00,67.3,54.7,30.11,SSW,212,1.0,5.0,64,0.00,CLR,CLR,0.00,508.0,WeatherDisplay:10.37,2013-04-10 13:44:00,
2013-04-10 09:49:00,67.7,54.6,30.11,SW,218,0.0,4.0,63,0.00,CLR,CLR,0.00,524.0,WeatherDisplay:10.37,2013-04-10 13:49:00,
2013-04-10 09:59:00,68.8,54.3,30.11,SW,216,2.0,12.0,60,0.00,CLR,CLR,0.00,561.0,WeatherDisplay:10.37,2013-04-10 13:59:00,
2013-04-10 10:04:00,68.7,54.7,30.11,SW,226,0.0,10.0,61,0.00,CLR,CLR,0.00,575.0,WeatherDisplay:10.37,2013-04-10 14:04:00,
2013-04-10 10:14:00,69.6,55.1,30.11,West,260,0.0,6.0,60,0.00,CLR,CLR,0.00,605.0,WeatherDisplay:10.37,2013-04-10 14:14:00,
2013-04-10 10:19:00,70.2,55.2,30.11,SW,220,0.0,5.0,59,0.00,CLR,CLR,0.00,624.0,WeatherDisplay:10.37,2013-04-10 14:19:00,
2013-04-10 10:29:00,70.5,55.0,30.11,South,186,2.0,7.0,58,0.00,CLR,CLR,0.00,652.0,WeatherDisplay:10.37,2013-04-10 14:29:00,
2013-04-10 10:39:00,71.6,55.1,30.11,SSW,204,0.0,3.0,56,0.00,CLR,CLR,0.00,677.0,WeatherDisplay:10.37,2013-04-10 14:39:00,
2013-04-10 10:44:00,72.4,55.3,30.11,SSW,210,3.0,7.0,55,0.00,CLR,CLR,0.00,691.0,WeatherDisplay:10.37,2013-04-10 14:44:00,
2013-04-10 10:49:00,72.5,55.9,30.11,SSE,164,0.0,4.0,56,0.00,CLR,CLR,0.00,703.0,WeatherDisplay:10.37,2013-04-10 14:49:00,
2013-04-10 10:54:00,72.9,56.3,30.11,SE,143,0.0,5.0,56,0.00,CLR,CLR,0.00,715.0,WeatherDisplay:10.37,2013-04-10 14:54:00,
2013-04-10 10:59:00,73.1,56.5,30.11,SSW,207,0.0,7.0,56,0.00,CLR,CLR,0.00,726.0,WeatherDisplay:10.37,2013-04-10 14:59:00,
2013-04-10 11:04:00,73.0,56.9,30.11,East,84,2.0,7.0,57,0.00,FEW,FEW,0.00,733.0,WeatherDisplay:10.37,2013-04-10 15:04:00,
2013-04-10 11:09:00,73.2,56.6,30.11,East,86,1.0,7.0,56,0.00,FEW,FEW,0.00,744.0,WeatherDisplay:10.37,2013-04-10 15:09:00,
2013-04-10 11:14:00,73.2,57.1,30.11,East,91,2.0,12.0,57,0.00,FEW,FEW,0.00,754.0,WeatherDisplay:10.37,2013-04-10 15:14:00,
2013-04-10 11:19:00,72.8,56.7,30.11,SW,235,1.0,10.0,57,0.00,FEW,FEW,0.00,766.0,WeatherDisplay:10.37,2013-04-10 15:19:00,
2013-04-10 11:29:00,72.6,55.5,30.11,WSW,241,8.0,15.0,55,0.00,FEW,FEW,0.00,786.0,WeatherDisplay:10.37,2013-04-10 15:29:00,
2013-04-10 11:34:00,72.6,55.5,30.12,WSW,245,8.0,13.0,55,0.00,FEW,FEW,0.00,793.0,WeatherDisplay:10.37,2013-04-10 15:34:00,
2013-04-10 11:39:00,72.5,54.9,30.11,WSW,249,6.0,13.0,54,0.00,FEW,FEW,0.00,803.0,WeatherDisplay:10.37,2013-04-10 15:39:00,
2013-04-10 11:44:00,72.9,55.8,30.11,WSW,247,1.0,10.0,55,0.00,FEW,FEW,0.00,816.0,WeatherDisplay:10.37,2013-04-10 15:44:00,
2013-04-10 11:49:00,74.0,55.8,30.11,WSW,241,8.0,12.0,53,0.00,FEW,FEW,0.00,823.0,WeatherDisplay:10.37,2013-04-10 15:49:00,
2013-04-10 11:54:00,73.7,56.0,30.11,WSW,240,2.0,15.0,54,0.00,FEW,FEW,0.00,833.0,WeatherDisplay:10.37,2013-04-10 15:54:00,
2013-04-10 12:04:00,74.3,56.6,30.11,SW,226,2.0,8.0,54,0.00,FEW,FEW,0.00,846.0,WeatherDisplay:10.37,2013-04-10 16:04:00,
2013-04-10 12:09:00,74.8,56.0,30.10,WSW,242,8.0,12.0,52,0.00,FEW,FEW,0.00,853.0,WeatherDisplay:10.37,2013-04-10 16:09:00,
2013-04-10 12:14:00,74.8,57.0,30.10,WSW,254,1.0,12.0,54,0.00,FEW,FEW,0.00,860.0,WeatherDisplay:10.37,2013-04-10 16:14:00,
2013-04-10 12:19:00,74.6,56.3,30.10,WSW,238,5.0,10.0,53,0.00,FEW,FEW,0.00,867.0,WeatherDisplay:10.37,2013-04-10 16:19:00,
2013-04-10 12:29:00,75.0,56.2,30.10,SSW,204,3.0,13.0,52,0.00,FEW,FEW,0.00,872.0,WeatherDisplay:10.37,2013-04-10 16:29:00,
2013-04-10 12:34:00,74.9,56.6,30.10,SW,226,6.0,13.0,53,0.00,FEW,FEW,0.00,881.0,WeatherDisplay:10.37,2013-04-10 16:34:00,
2013-04-10 12:39:00,74.8,57.0,30.10,SSW,211,1.0,13.0,54,0.00,FEW,FEW,0.00,879.0,WeatherDisplay:10.37,2013-04-10 16:39:00,
2013-04-10 12:44:00,75.4,57.6,30.10,SW,219,2.0,13.0,54,0.00,FEW,FEW,0.00,882.0,WeatherDisplay:10.37,2013-04-10 16:44:00,
2013-04-10 12:49:00,75.7,57.9,30.09,West,261,1.0,7.0,54,0.00,FEW,FEW,0.00,895.0,WeatherDisplay:10.37,2013-04-10 16:49:00,
2013-04-10 12:59:00,75.5,58.2,30.09,SW,230,3.0,14.0,55,0.00,FEW,FEW,0.00,893.0,WeatherDisplay:10.37,2013-04-10 16:59:00,
2013-04-10 13:09:00,75.1,57.8,30.09,SW,220,3.0,14.0,55,0.00,FEW,FEW,0.00,891.0,WeatherDisplay:10.37,2013-04-10 17:09:00,
2013-04-10 13:14:00,75.2,57.9,30.09,SW,217,5.0,14.0,55,0.00,FEW,FEW,0.00,893.0,WeatherDisplay:10.37,2013-04-10 17:14:00,
2013-04-10 13:24:00,75.2,57.9,30.08,SE,139,2.0,7.0,55,0.00,FEW,FEW,0.00,893.0,WeatherDisplay:10.37,2013-04-10 17:24:00,
2013-04-10 13:29:00,75.4,57.6,30.08,WNW,294,1.0,15.0,54,0.00,FEW,FEW,0.00,893.0,WeatherDisplay:10.37,2013-04-10 17:29:00,
2013-04-10 13:34:00,75.2,56.9,30.08,WSW,239,6.0,15.0,53,0.00,FEW,FEW,0.00,895.0,WeatherDisplay:10.37,2013-04-10 17:34:00,
2013-04-10 13:39:00,75.3,57.5,30.08,SW,224,6.0,14.0,54,0.00,FEW,FEW,0.00,900.0,WeatherDisplay:10.37,2013-04-10 17:39:00,
2013-04-10 13:44:00,75.7,57.4,30.08,SW,224,6.0,13.0,53,0.00,FEW,FEW,0.00,893.0,WeatherDisplay:10.37,2013-04-10 17:44:00,
2013-04-10 13:49:00,75.8,58.0,30.08,SW,217,1.0,14.0,54,0.00,FEW,FEW,0.00,893.0,WeatherDisplay:10.37,2013-04-10 17:49:00,
2013-04-10 13:54:00,76.2,57.2,30.08,SW,218,7.0,13.0,52,0.00,FEW,FEW,0.00,884.0,WeatherDisplay:10.37,2013-04-10 17:54:00,
2013-04-10 13:59:00,76.8,57.3,30.08,SW,226,2.0,9.0,51,0.00,FEW,FEW,0.00,879.0,WeatherDisplay:10.37,2013-04-10 17:59:00,
2013-04-10 14:09:00,76.7,57.2,30.07,WSW,254,3.0,13.0,51,0.00,FEW,FEW,0.00,875.0,WeatherDisplay:10.37,2013-04-10 18:09:00,
2013-04-10 14:14:00,76.8,56.2,30.07,WSW,253,8.0,13.0,49,0.00,FEW,FEW,0.00,872.0,WeatherDisplay:10.37,2013-04-10 18:14:00,
2013-04-10 14:19:00,76.8,57.8,30.07,WSW,241,3.0,12.0,52,0.00,FEW,FEW,0.00,874.0,WeatherDisplay:10.37,2013-04-10 18:19:00,
2013-04-10 14:29:00,77.3,57.2,30.07,WSW,247,1.0,12.0,50,0.00,FEW,FEW,0.00,856.0,WeatherDisplay:10.37,2013-04-10 18:29:00,
2013-04-10 14:39:00,76.9,56.3,30.07,SW,225,9.0,18.0,49,0.00,FEW,FEW,0.00,844.0,WeatherDisplay:10.37,2013-04-10 18:39:00,
2013-04-10 14:49:00,77.1,57.0,30.07,West,259,10.0,17.0,50,0.00,FEW,FEW,0.00,833.0,WeatherDisplay:10.37,2013-04-10 18:49:00,
2013-04-10 14:54:00,77.1,56.5,30.07,WSW,257,8.0,18.0,49,0.00,FEW,FEW,0.00,816.0,WeatherDisplay:10.37,2013-04-10 18:54:00,
2013-04-10 15:04:00,76.5,57.0,30.06,SSW,198,5.0,15.0,51,0.00,FEW,FEW,0.00,796.0,WeatherDisplay:10.37,2013-04-10 19:04:00,
2013-04-10 15:09:00,76.2,56.2,30.06,South,171,5.0,16.0,50,0.00,FEW,FEW,0.00,798.0,WeatherDisplay:10.37,2013-04-10 19:09:00,
2013-04-10 15:19:00,77.0,56.9,30.05,SW,227,2.0,10.0,50,0.00,FEW,FEW,0.00,788.0,WeatherDisplay:10.37,2013-04-10 19:19:00,
2013-04-10 15:24:00,77.3,56.7,30.05,SW,215,2.0,12.0,49,0.00,FEW,FEW,0.00,779.0,WeatherDisplay:10.37,2013-04-10 19:24:00,
2013-04-10 15:29:00,77.4,56.2,30.05,SW,221,7.0,13.0,48,0.00,FEW,FEW,0.00,751.0,WeatherDisplay:10.37,2013-04-10 19:29:00,
2013-04-10 15:34:00,78.0,56.7,30.05,SW,234,8.0,12.0,48,0.00,FEW,FEW,0.00,763.0,WeatherDisplay:10.37,2013-04-10 19:34:00,
2013-04-10 15:39:00,77.8,56.5,30.05,WSW,239,9.0,17.0,48,0.00,FEW,FEW,0.00,742.0,WeatherDisplay:10.37,2013-04-10 19:39:00,
2013-04-10 15:49:00,77.0,56.4,30.04,South,179,5.0,13.0,49,0.00,FEW,FEW,0.00,701.0,WeatherDisplay:10.37,2013-04-10 19:49:00,
2013-04-10 15:54:00,76.8,56.8,30.04,South,184,2.0,14.0,50,0.00,FEW,FEW,0.00,707.0,WeatherDisplay:10.37,2013-04-10 19:54:00,
2013-04-10 16:04:00,77.7,57.6,30.03,South,187,0.0,7.0,50,0.00,FEW,FEW,0.00,680.0,WeatherDisplay:10.37,2013-04-10 20:04:00,
2013-04-10 16:09:00,78.0,56.2,30.03,SW,230,10.0,18.0,47,0.00,FEW,FEW,0.00,652.0,WeatherDisplay:10.37,2013-04-10 20:09:00,
2013-04-10 16:14:00,77.0,56.4,30.03,SW,223,3.0,13.0,49,0.00,FEW,FEW,0.00,647.0,WeatherDisplay:10.37,2013-04-10 20:14:00,
2013-04-10 16:19:00,76.9,57.4,30.03,South,191,2.0,9.0,51,0.00,FEW,FEW,0.00,636.0,WeatherDisplay:10.37,2013-04-10 20:19:00,
2013-04-10 16:29:00,77.3,56.1,30.03,WSW,238,9.0,13.0,48,0.00,FEW,FEW,0.00,601.0,WeatherDisplay:10.37,2013-04-10 20:29:00,
2013-04-10 16:39:00,77.2,56.0,30.02,SSW,199,2.0,10.0,48,0.00,FEW,FEW,0.00,582.0,WeatherDisplay:10.37,2013-04-10 20:39:00,
2013-04-10 16:49:00,77.2,56.6,30.02,SSW,206,5.0,15.0,49,0.00,FEW,FEW,0.00,541.0,WeatherDisplay:10.37,2013-04-10 20:49:00,
2013-04-10 16:59:00,76.7,57.2,30.01,WNW,292,1.0,9.0,51,0.00,FEW,FEW,0.00,508.0,WeatherDisplay:10.37,2013-04-10 20:59:00,
2013-04-10 17:09:00,76.3,56.3,30.01,WSW,247,6.0,12.0,50,0.00,FEW,FEW,0.00,476.0,WeatherDisplay:10.37,2013-04-10 21:09:00,
2013-04-10 17:14:00,76.0,56.6,30.01,WSW,254,3.0,13.0,51,0.00,FEW,FEW,0.00,459.0,WeatherDisplay:10.37,2013-04-10 21:14:00,
2013-04-10 17:19:00,75.9,57.1,30.01,SW,214,1.0,10.0,52,0.00,FEW,FEW,0.00,446.0,WeatherDisplay:10.37,2013-04-10 21:19:00,
2013-04-10 17:24:00,75.9,56.5,30.01,SSE,163,5.0,12.0,51,0.00,FEW,FEW,0.00,425.0,WeatherDisplay:10.37,2013-04-10 21:24:00,
2013-04-10 17:29:00,76.2,56.8,30.01,SSW,212,2.0,12.0,51,0.00,FEW,FEW,0.00,410.0,WeatherDisplay:10.37,2013-04-10 21:29:00,
2013-04-10 17:34:00,75.9,56.5,30.01,South,186,6.0,16.0,51,0.00,FEW,FEW,0.00,399.0,WeatherDisplay:10.37,2013-04-10 21:34:00,
2013-04-10 17:39:00,75.4,56.6,30.01,SSE,156,3.0,12.0,52,0.00,FEW,FEW,0.00,380.0,WeatherDisplay:10.37,2013-04-10 21:39:00,
2013-04-10 17:49:00,75.0,56.7,30.01,SE,126,1.0,7.0,53,0.00,FEW,FEW,0.00,341.0,WeatherDisplay:10.37,2013-04-10 21:49:00,
2013-04-10 17:59:00,75.2,56.4,30.01,SW,228,5.0,13.0,52,0.00,FEW,FEW,0.00,315.0,WeatherDisplay:10.37,2013-04-10 21:59:00,
2013-04-10 18:04:00,75.3,56.5,30.01,SW,232,6.0,12.0,52,0.00,FEW,FEW,0.00,299.0,WeatherDisplay:10.37,2013-04-10 22:04:00,
2013-04-10 18:09:00,75.4,56.5,30.01,SW,217,2.0,6.0,52,0.00,FEW,FEW,0.00,283.0,WeatherDisplay:10.37,2013-04-10 22:09:00,
2013-04-10 18:19:00,75.4,56.5,30.01,SSW,211,3.0,9.0,52,0.00,FEW,FEW,0.00,248.0,WeatherDisplay:10.37,2013-04-10 22:19:00,
2013-04-10 18:24:00,75.3,56.4,30.01,SSW,194,1.0,10.0,52,0.00,FEW,FEW,0.00,230.0,WeatherDisplay:10.37,2013-04-10 22:24:00,
2013-04-10 18:34:00,74.7,56.4,30.01,South,176,5.0,12.0,53,0.00,FEW,FEW,0.00,197.0,WeatherDisplay:10.37,2013-04-10 22:34:00,
2013-04-10 18:44:00,74.2,56.0,30.00,SSW,210,6.0,12.0,53,0.00,SCT,SCT,0.00,158.0,WeatherDisplay:10.37,2013-04-10 22:44:00,
2013-04-10 18:54:00,73.8,56.1,30.00,SSW,206,0.0,7.0,54,0.00,SCT,SCT,0.00,121.0,WeatherDisplay:10.37,2013-04-10 22:54:00,
2013-04-10 19:04:00,73.6,55.9,30.00,South,187,1.0,10.0,54,0.00,SCT,SCT,0.00,88.0,WeatherDisplay:10.37,2013-04-10 23:04:00,
2013-04-10 19:09:00,73.3,55.6,30.00,South,169,2.0,7.0,54,0.00,SCT,SCT,0.00,72.0,WeatherDisplay:10.37,2013-04-10 23:09:00,
2013-04-10 19:14:00,72.8,55.7,30.00,SSE,152,0.0,7.0,55,0.00,BKN,BKN,0.00,58.0,WeatherDisplay:10.37,2013-04-10 23:14:00,
2013-04-10 19:19:00,72.4,55.8,30.00,SSE,158,0.0,9.0,56,0.00,BKN,BKN,0.00,47.0,WeatherDisplay:10.37,2013-04-10 23:19:00,
2013-04-10 19:29:00,72.2,55.6,30.00,SE,143,2.0,5.0,56,0.00,BKN,BKN,0.00,30.0,WeatherDisplay:10.37,2013-04-10 23:29:00,
2013-04-10 19:39:00,71.8,55.2,30.00,SSW,210,2.0,6.0,56,0.00,BKN,BKN,0.00,19.0,WeatherDisplay:10.37,2013-04-10 23:39:00,
2013-04-10 19:44:00,71.4,55.3,30.00,SW,221,2.0,5.0,57,0.00,BKN,BKN,0.00,16.0,WeatherDisplay:10.37,2013-04-10 23:44:00,
2013-04-10 19:49:00,71.1,55.1,30.00,SSW,203,0.0,6.0,57,0.00,BKN,BKN,0.00,11.0,WeatherDisplay:10.37,2013-04-10 23:49:00,
2013-04-10 19:59:00,70.3,55.3,30.00,SW,220,1.0,4.0,59,0.00,OVC,OVC,0.00,0.0,WeatherDisplay:10.37,2013-04-10 23:59:00,
2013-04-10 20:04:00,70.1,55.1,30.00,WSW,247,0.0,4.0,59,0.00,OVC,OVC,0.00,0.0,WeatherDisplay:10.37,2013-04-11 00:04:00,
2013-04-10 20:09:00,69.8,55.3,29.99,WSW,255,1.0,3.0,60,0.00,OVC,OVC,0.00,0.0,WeatherDisplay:10.37,2013-04-11 00:09:00,
2013-04-10 20:19:00,69.4,55.4,29.99,SW,234,0.0,2.0,61,0.00,OVC,OVC,0.00,0.0,WeatherDisplay:10.37,2013-04-11 00:19:00,
2013-04-10 20:24:00,68.9,54.9,29.99,SW,232,0.0,0.0,61,0.00,OVC,OVC,0.00,0.0,WeatherDisplay:10.37,2013-04-11 00:24:00,
2013-04-10 20:29:00,68.0,54.5,29.99,WSW,247,0.0,1.0,62,0.00,OVC,OVC,0.00,0.0,WeatherDisplay:10.37,2013-04-11 00:29:00,
2013-04-10 20:34:00,67.4,54.8,29.99,SSW,192,0.0,2.0,64,0.00,CLR,CLR,0.00,0.0,WeatherDisplay:10.37,2013-04-11 00:34:00,
2013-04-10 20:44:00,66.7,55.0,29.99,SW,225,0.0,4.0,66,0.00,CLR,CLR,0.00,0.0,WeatherDisplay:10.37,2013-04-11 00:44:00,
2013-04-10 20:49:00,66.5,54.8,29.99,WSW,238,0.0,4.0,66,0.00,CLR,CLR,0.00,0.0,WeatherDisplay:10.37,2013-04-11 00:49:00,
2013-04-10 20:54:00,66.3,54.6,29.99,WSW,251,0.0,1.0,66,0.00,CLR,CLR,0.00,0.0,WeatherDisplay:10.37,2013-04-11 00:54:00,
2013-04-10 21:04:00,65.1,54.3,29.99,West,259,0.0,1.0,68,0.00,CLR,CLR,0.00,0.0,WeatherDisplay:10.37,2013-04-11 01:04:00,
2013-04-10 21:09:00,64.7,54.7,29.99,West,259,0.0,1.0,70,0.00,CLR,CLR,0.00,0.0,WeatherDisplay:10.37,2013-04-11 01:09:00,
2013-04-10 21:14:00,64.2,54.2,29.99,West,259,0.0,2.0,70,0.00,CLR,CLR,0.00,0.0,WeatherDisplay:10.37,2013-04-11 01:14:00,
2013-04-10 21:19:00,63.7,54.1,29.99,West,259,0.0,1.0,71,0.00,CLR,CLR,0.00,0.0,WeatherDisplay:10.37,2013-04-11 01:19:00,
2013-04-10 21:24:00,63.4,54.2,29.99,West,259,0.0,1.0,72,0.00,CLR,CLR,0.00,0.0,WeatherDisplay:10.37,2013-04-11 01:24:00,
2013-04-10 21:29:00,63.4,54.6,29.98,West,259,0.0,0.0,73,0.00,CLR,CLR,0.00,0.0,WeatherDisplay:10.37,2013-04-11 01:29:00,
2013-04-10 21:39:00,62.9,54.1,29.99,West,259,0.0,1.0,73,0.00,CLR,CLR,0.00,0.0,WeatherDisplay:10.37,2013-04-11 01:39:00,
2013-04-10 21:44:00,62.8,54.4,29.99,SW,232,0.0,1.0,74,0.00,CLR,CLR,0.00,0.0,WeatherDisplay:10.37,2013-04-11 01:44:00,
2013-04-10 21:49:00,63.2,54.4,29.98,South,190,1.0,4.0,73,0.00,CLR,CLR,0.00,0.0,WeatherDisplay:10.37,2013-04-11 01:49:00,
2013-04-10 21:59:00,64.1,54.5,29.98,SSW,202,2.0,6.0,71,0.00,CLR,CLR,0.00,0.0,WeatherDisplay:10.37,2013-04-11 01:59:00,
2013-04-10 22:04:00,64.3,54.3,29.98,South,187,0.0,2.0,70,0.00,CLR,CLR,0.00,0.0,WeatherDisplay:10.37,2013-04-11 02:04:00,
2013-04-10 22:14:00,64.7,54.7,29.98,South,190,0.0,5.0,70,0.00,CLR,CLR,0.00,0.0,WeatherDisplay:10.37,2013-04-11 02:14:00,
2013-04-10 22:19:00,64.6,54.6,29.98,SSW,192,1.0,3.0,70,0.00,CLR,CLR,0.00,0.0,WeatherDisplay:10.37,2013-04-11 02:19:00,
2013-04-10 22:24:00,64.3,54.3,29.98,SW,225,0.0,2.0,70,0.00,CLR,CLR,0.00,0.0,WeatherDisplay:10.37,2013-04-11 02:24:00,
2013-04-10 22:29:00,63.6,54.0,29.98,WSW,243,0.0,1.0,71,0.00,CLR,CLR,0.00,0.0,WeatherDisplay:10.37,2013-04-11 02:29:00,
2013-04-10 22:34:00,62.8,53.7,29.98,WSW,243,0.0,0.0,72,0.00,CLR,CLR,0.00,0.0,WeatherDisplay:10.37,2013-04-11 02:34:00,
2013-04-10 22:44:00,61.4,53.0,29.98,WSW,243,0.0,0.0,74,0.00,CLR,CLR,0.00,0.0,WeatherDisplay:10.37,2013-04-11 02:44:00,
2013-04-10 22:49:00,60.7,52.7,29.97,WSW,242,0.0,0.0,75,0.00,CLR,CLR,0.00,0.0,WeatherDisplay:10.37,2013-04-11 02:49:00,
2013-04-10 22:54:00,60.1,52.5,29.97,WSW,243,0.0,0.0,76,0.00,CLR,CLR,0.00,0.0,WeatherDisplay:10.37,2013-04-11 02:54:00,
2013-04-10 22:59:00,59.7,52.8,29.97,WSW,243,0.0,0.0,78,0.00,CLR,CLR,0.00,0.0,WeatherDisplay:10.37,2013-04-11 02:59:00,
2013-04-10 23:04:00,59.5,52.6,29.97,WSW,243,0.0,0.0,78,0.00,CLR,CLR,0.00,0.0,WeatherDisplay:10.37,2013-04-11 03:04:00,
2013-04-10 23:14:00,59.0,52.5,29.97,WSW,243,0.0,0.0,79,0.00,CLR,CLR,0.00,0.0,WeatherDisplay:10.37,2013-04-11 03:14:00,
2013-04-10 23:24:00,58.7,52.5,29.97,WSW,243,0.0,0.0,80,0.00,CLR,CLR,0.00,0.0,WeatherDisplay:10.37,2013-04-11 03:24:00,
2013-04-10 23:29:00,58.6,52.4,29.97,WSW,243,0.0,0.0,80,0.00,CLR,CLR,0.00,0.0,WeatherDisplay:10.37,2013-04-11 03:29:00,
2013-04-10 23:34:00,58.4,52.3,29.97,WSW,243,0.0,0.0,80,0.00,CLR,CLR,0.00,0.0,WeatherDisplay:10.37,2013-04-11 03:34:00,
2013-04-10 23:39:00,58.3,52.5,29.98,WSW,243,0.0,1.0,81,0.00,CLR,CLR,0.00,0.0,WeatherDisplay:10.37,2013-04-11 03:39:00,
2013-04-10 23:49:00,58.1,52.6,29.97,WSW,243,0.0,1.0,82,0.00,CLR,CLR,0.00,0.0,WeatherDisplay:10.37,2013-04-11 03:49:00,
2013-04-10 23:54:00,58.0,52.5,29.97,WSW,243,0.0,1.0,82,0.00,CLR,CLR,0.00,0.0,WeatherDisplay:10.37,2013-04-11 03:54:00,
2013-04-10 23:59:00,58.4,52.9,29.98,SSW,209,0.0,2.0,82,0.00,CLR,CLR,0.00,0.0,WeatherDisplay:10.37,2013-04-11 03:59:00,